createdAt,value
2017-06-19T00:00:26.651Z,55.9
2017-06-19T00:02:50.967Z,55.78
2017-06-19T00:05:16.143Z,56.74
2017-06-19T00:07:40.427Z,57.29
2017-06-19T00:09:50.933Z,57.2
2017-06-19T00:12:15.188Z,56.74
2017-06-19T00:14:39.475Z,56.56
2017-06-19T00:16:55.234Z,57.94
2017-06-19T00:19:19.437Z,59.1
2017-06-19T00:21:43.624Z,58.52
2017-06-19T00:23:51.008Z,58.33
2017-06-19T00:25:58.362Z,59
2017-06-19T00:28:22.587Z,58.97
2017-06-19T00:30:38.372Z,59.94
2017-06-19T00:32:54.155Z,58.97
2017-06-19T00:35:09.905Z,59
2017-06-19T00:37:34.020Z,60.23
2017-06-19T00:39:59.241Z,59.75
2017-06-19T00:42:24.439Z,59.2
2017-06-19T00:44:49.555Z,59.3
2017-06-19T00:47:05.338Z,59.1
2017-06-19T00:49:15.768Z,59.45
2017-06-19T00:51:31.485Z,59.87
2017-06-19T00:53:55.667Z,59.58
2017-06-19T00:56:11.355Z,59.75
2017-06-19T00:58:36.560Z,60.03
2017-06-19T01:00:53.270Z,60.42
2017-06-19T01:03:17.359Z,60.32
2017-06-19T01:05:41.535Z,61.16
2017-06-19T01:08:14.631Z,61.07
2017-06-19T01:10:38.819Z,62.57
2017-06-19T01:13:02.926Z,63.44
2017-06-19T01:15:27.999Z,63.15
2017-06-19T01:17:35.249Z,63.64
2017-06-19T01:19:59.366Z,63.89
2017-06-19T01:22:15.052Z,63.7
2017-06-19T01:24:22.299Z,63.89
2017-06-19T01:26:46.316Z,63.73
2017-06-19T01:29:10.405Z,63.06
2017-06-19T01:31:34.490Z,62.57
2017-06-19T01:33:58.565Z,61.93
2017-06-19T01:36:22.648Z,62.22
2017-06-19T01:38:38.333Z,61.55
2017-06-19T01:41:02.412Z,61.65
2017-06-19T01:43:26.495Z,61.65
2017-06-19T01:45:42.143Z,61.65
2017-06-19T01:47:57.862Z,61.07
2017-06-19T01:50:21.948Z,60.3
2017-06-19T01:52:46.130Z,60.1
2017-06-19T01:55:10.218Z,61.45
2017-06-19T01:57:34.298Z,61.45
2017-06-19T01:59:58.381Z,60.68
2017-06-19T02:02:13.960Z,60.97
2017-06-19T02:04:29.651Z,61.61
2017-06-19T02:06:53.727Z,61.13
2017-06-19T02:09:09.412Z,60.84
2017-06-19T02:11:33.491Z,61.13
2017-06-19T02:13:57.471Z,60.46
2017-06-19T02:16:07.366Z,60.46
2017-06-19T02:18:31.405Z,60.36
2017-06-19T02:20:47.089Z,60.46
2017-06-19T02:23:02.742Z,60.36
2017-06-19T02:25:18.345Z,60.46
2017-06-19T02:27:42.436Z,61.04
2017-06-19T02:30:06.515Z,61.22
2017-06-19T02:32:30.593Z,61.39
2017-06-19T02:34:54.685Z,61.39
2017-06-19T02:37:04.655Z,62.16
2017-06-19T02:39:28.713Z,62.26
2017-06-19T02:41:44.370Z,62.16
2017-06-19T02:43:51.579Z,62.35
2017-06-19T02:46:15.666Z,62.19
2017-06-19T02:48:39.750Z,61.61
2017-06-19T02:51:03.825Z,62.74
2017-06-19T02:53:27.905Z,61.8
2017-06-19T02:55:51.995Z,61.9
2017-06-19T02:58:16.074Z,61.42
2017-06-19T03:00:17.972Z,61.77
2017-06-19T03:02:42.125Z,62.16
2017-06-19T03:05:06.213Z,62.26
2017-06-19T03:07:21.787Z,62.26
2017-06-19T03:09:45.865Z,62.45
2017-06-19T03:12:09.940Z,62.06
2017-06-19T03:14:34.032Z,62.06
2017-06-19T03:16:58.111Z,62.54
2017-06-19T03:19:22.085Z,61.49
2017-06-19T03:21:46.175Z,62.9
2017-06-19T03:24:10.251Z,62.99
2017-06-19T03:26:25.841Z,62.61
2017-06-19T03:28:49.814Z,63.86
2017-06-19T03:31:13.796Z,63.57
2017-06-19T03:33:37.767Z,63.48
2017-06-19T03:35:53.350Z,63.38
2017-06-19T03:38:17.333Z,63.38
2017-06-19T03:40:41.315Z,63.12
2017-06-19T03:42:56.893Z,62.74
2017-06-19T03:45:20.980Z,62.99
2017-06-19T03:47:45.062Z,62.8
2017-06-19T03:50:09.153Z,62.54
2017-06-19T03:52:33.121Z,63.22
2017-06-19T03:54:48.705Z,62.9
2017-06-19T03:57:12.678Z,63.67
2017-06-19T03:59:36.678Z,64.25
2017-06-19T04:02:00.646Z,65.75
2017-06-19T04:04:16.228Z,65.66
2017-06-19T04:06:40.206Z,65.08
2017-06-19T04:08:50.582Z,64.05
2017-06-19T04:11:06.270Z,63.57
2017-06-19T04:13:30.335Z,63.86
2017-06-19T04:15:54.409Z,63.51
2017-06-19T04:17:56.251Z,64.15
2017-06-19T04:20:11.924Z,62.09
2017-06-19T04:22:36.041Z,54.1
2017-06-19T04:25:00.237Z,45.87
2017-06-19T04:27:24.534Z,40.47
2017-06-19T04:29:49.034Z,37.33
2017-06-19T04:32:13.746Z,33.7
2017-06-19T04:34:08.092Z,32.03
2017-06-19T04:36:33.040Z,29.59
2017-06-19T04:38:58.161Z,28.95
2017-06-19T04:41:14.875Z,28.33
2017-06-19T04:43:40.194Z,26.5
2017-06-19T04:46:05.618Z,23.74
2017-06-19T04:48:22.637Z,21.53
2017-06-19T04:50:48.368Z,21.8
2017-06-19T04:53:05.693Z,20.47
2017-06-19T04:55:31.620Z,20.57
2017-06-19T04:57:57.664Z,18.33
2017-06-19T05:00:00.023Z,17.96
2017-06-19T05:02:26.172Z,14.88
2017-06-19T05:04:28.540Z,14.19
2017-06-19T05:06:54.886Z,12.33
2017-06-19T05:09:21.335Z,10.98
2017-06-19T05:11:47.878Z,10.56
2017-06-19T05:14:06.972Z,10.94
2017-06-19T05:16:33.691Z,10.18
2017-06-19T05:19:00.440Z,10.27
2017-06-19T05:21:10.091Z,10.66
2017-06-19T05:23:36.935Z,10.85
2017-06-19T05:25:55.184Z,12.32
2017-06-19T05:28:21.318Z,12.31
2017-06-19T05:30:48.265Z,11.73
2017-06-19T05:33:22.905Z,11.24
2017-06-19T05:36:05.841Z,10.46
2017-06-19T05:38:24.386Z,9.28
2017-06-19T05:40:51.535Z,8.67
2017-06-19T05:42:54.188Z,8.79
2017-06-19T05:45:22.501Z,7.5
2017-06-19T05:47:49.766Z,8.37
2017-06-19T05:50:08.500Z,7.99
2017-06-19T05:52:19.894Z,8.86
2017-06-19T05:54:31.309Z,7.89
2017-06-19T05:58:26.136Z,8.16
2017-06-19T06:00:53.668Z,8.37
2017-06-19T06:03:21.134Z,6
2017-06-19T06:05:48.600Z,7.3
2017-06-19T06:08:07.562Z,6.6
2017-06-19T06:10:35.126Z,6.1
2017-06-19T06:13:02.796Z,6.5
2017-06-19T06:15:21.765Z,7.49
2017-06-19T06:17:49.423Z,7.19
2017-06-19T06:20:08.387Z,7.97
2017-06-19T06:22:36.051Z,7.78
2017-06-19T06:24:38.311Z,8.56
2017-06-19T06:26:41.045Z,5.9
2017-06-19T06:29:08.782Z,5.9
2017-06-19T06:31:37.571Z,8.37
2017-06-19T06:33:56.736Z,10.89
2017-06-19T06:36:24.606Z,12.56
2017-06-19T06:38:43.819Z,12.67
2017-06-19T06:41:11.637Z,11.5
2017-06-19T06:43:39.410Z,15.95
2017-06-19T06:46:07.073Z,13.45
2017-06-19T06:48:34.626Z,12.77
2017-06-19T06:51:02.079Z,15.09
2017-06-19T06:53:20.726Z,14.83
2017-06-19T06:55:47.767Z,15.58
2017-06-19T06:58:14.701Z,18.35
2017-06-19T07:00:41.449Z,20.39
2017-06-19T07:02:59.475Z,21.28
2017-06-19T07:05:25.908Z,20.5
2017-06-19T07:07:52.343Z,20.57
2017-06-19T07:10:18.564Z,19.81
2017-06-19T07:12:44.792Z,17.8
2017-06-19T07:15:10.915Z,17.32
2017-06-19T07:17:36.946Z,18.37
2017-06-19T07:20:02.965Z,15.97
2017-06-19T07:22:28.994Z,15.88
2017-06-19T07:24:55.029Z,15.19
2017-06-19T07:27:21.053Z,15.19
2017-06-19T07:29:47.082Z,16.8
2017-06-19T07:32:04.611Z,16.89
2017-06-19T07:34:30.644Z,16.53
2017-06-19T07:36:56.663Z,17.29
2017-06-19T07:39:22.697Z,17.97
2017-06-19T07:41:48.723Z,19.9
2017-06-19T07:43:51.126Z,18.08
2017-06-19T07:46:17.221Z,17.98
2017-06-19T07:48:43.245Z,18.18
2017-06-19T07:51:09.278Z,20.28
2017-06-19T07:53:35.302Z,19.71
2017-06-19T07:56:01.332Z,19.12
2017-06-19T07:58:27.362Z,18.27
2017-06-19T08:00:54.410Z,19.24
2017-06-19T08:03:20.434Z,17.7
2017-06-19T08:05:46.474Z,19.69
2017-06-19T08:08:04.001Z,21.06
2017-06-19T08:10:30.033Z,18.85
2017-06-19T08:12:56.152Z,18.46
2017-06-19T08:15:22.191Z,16.25
2017-06-19T08:17:49.342Z,18.44
2017-06-19T08:20:15.463Z,20.01
2017-06-19T08:22:32.997Z,17.88
2017-06-19T08:24:51.549Z,16.06
2017-06-19T08:27:17.676Z,16.83
2017-06-19T08:29:27.629Z,17.11
2017-06-19T08:31:54.778Z,16.27
2017-06-19T08:34:20.919Z,15.85
2017-06-19T08:36:47.045Z,17.8
2017-06-19T08:38:57.098Z,16.06
2017-06-19T08:41:23.230Z,15.19
2017-06-19T08:43:25.606Z,13.75
2017-06-19T08:45:51.838Z,13.07
2017-06-19T08:48:18.067Z,14.79
2017-06-19T08:50:35.734Z,13.75
2017-06-19T08:53:03.073Z,15.37
2017-06-19T08:55:29.387Z,14.8
2017-06-19T08:57:55.735Z,12.88
2017-06-19T09:00:21.961Z,11.8
2017-06-19T09:02:48.297Z,11.9
2017-06-19T09:05:06.076Z,10.71
2017-06-19T09:07:32.475Z,13.45
2017-06-19T09:09:58.808Z,11.5
2017-06-19T09:12:25.140Z,11.79
2017-06-19T09:14:51.580Z,11.29
2017-06-19T09:17:18.005Z,11.88
2017-06-19T09:19:44.355Z,11.77
2017-06-19T09:22:10.692Z,11.78
2017-06-19T09:24:37.023Z,11.19
2017-06-19T09:26:54.756Z,12.05
2017-06-19T09:29:21.088Z,11.66
2017-06-19T09:31:47.420Z,11.27
2017-06-19T09:34:05.154Z,10.1
2017-06-19T09:36:31.491Z,10.61
2017-06-19T09:38:57.825Z,10.31
2017-06-19T09:41:16.588Z,9.32
2017-06-19T09:43:42.818Z,10.49
2017-06-19T09:46:00.574Z,11.36
2017-06-19T09:48:26.872Z,13.68
2017-06-19T09:50:44.610Z,13.7
2017-06-19T09:53:11.953Z,12.24
2017-06-19T09:55:38.091Z,11.18
2017-06-19T09:58:05.256Z,11.96
2017-06-19T10:00:22.879Z,12.84
2017-06-19T10:02:50.030Z,12.84
2017-06-19T10:05:16.159Z,13.91
2017-06-19T10:07:33.687Z,14
2017-06-19T10:09:53.269Z,14.78
2017-06-19T10:12:20.314Z,14.76
2017-06-19T10:14:47.374Z,14.17
2017-06-19T10:16:49.717Z,15.72
2017-06-19T10:19:15.763Z,16.61
2017-06-19T10:21:33.082Z,16.3
2017-06-19T10:23:59.934Z,16.39
2017-06-19T10:26:26.883Z,17.35
2017-06-19T10:28:53.720Z,17.36
2017-06-19T10:31:19.551Z,16.99
2017-06-19T10:33:45.255Z,16.39
2017-06-19T10:36:03.504Z,17.99
2017-06-19T10:38:20.729Z,18.49
2017-06-19T10:40:46.445Z,18.77
2017-06-19T10:43:14.104Z,17.62
2017-06-19T10:45:39.715Z,19.92
2017-06-19T10:48:06.190Z,19.27
2017-06-19T10:50:30.875Z,18.98
2017-06-19T10:52:56.381Z,18.49
2017-06-19T10:55:13.469Z,19.66
2017-06-19T10:57:15.690Z,20.91
2017-06-19T10:59:32.678Z,20.53
2017-06-19T11:01:58.173Z,19.88
2017-06-19T11:04:23.722Z,19.66
2017-06-19T11:06:49.213Z,18.88
2017-06-19T11:09:14.620Z,18.23
2017-06-19T11:11:40.030Z,18.24
2017-06-19T11:14:05.555Z,18.63
2017-06-19T11:16:33.035Z,18.43
2017-06-19T11:18:58.531Z,17.94
2017-06-19T11:21:17.501Z,18.42
2017-06-19T11:23:43.012Z,19.77
2017-06-19T11:26:09.549Z,19.1
2017-06-19T11:28:27.573Z,19.88
2017-06-19T11:30:53.112Z,18.79
2017-06-19T11:33:19.555Z,17.81
2017-06-19T11:35:44.950Z,18.49
2017-06-19T11:38:10.369Z,18.98
2017-06-19T11:40:27.277Z,20.43
2017-06-19T11:42:44.192Z,21.11
2017-06-19T11:45:09.603Z,20.53
2017-06-19T11:47:34.920Z,20.24
2017-06-19T11:50:01.247Z,19.95
2017-06-19T11:52:26.656Z,19.76
2017-06-19T11:54:52.895Z,20.15
2017-06-19T11:57:19.024Z,19.76
2017-06-19T11:59:45.241Z,19.76
2017-06-19T12:02:12.505Z,19.07
2017-06-19T12:04:37.922Z,19.08
2017-06-19T12:06:40.408Z,19.19
2017-06-19T12:09:05.818Z,19.19
2017-06-19T12:11:32.462Z,19.84
2017-06-19T12:13:57.872Z,19.76
2017-06-19T12:16:23.277Z,19.57
2017-06-19T12:18:48.698Z,19.38
2017-06-19T12:21:14.113Z,19.56
2017-06-19T12:23:39.526Z,19.66
2017-06-19T12:26:04.945Z,19.75
2017-06-19T12:27:58.617Z,19.66
2017-06-19T12:30:24.022Z,19.38
2017-06-19T12:32:40.942Z,18.77
2017-06-19T12:35:07.376Z,19.76
2017-06-19T12:37:39.443Z,19.56
2017-06-19T12:40:04.854Z,19.75
2017-06-19T12:42:21.818Z,19.94
2017-06-19T12:44:47.182Z,19.56
2017-06-19T12:47:13.522Z,19.46
2017-06-19T12:49:38.934Z,19.46
2017-06-19T12:52:04.344Z,18.86
2017-06-19T12:54:21.147Z,18.95
2017-06-19T12:56:37.922Z,18.77
2017-06-19T12:58:54.786Z,19.26
2017-06-19T13:02:56.177Z,18.48
2017-06-19T13:05:21.558Z,18.48
2017-06-19T13:07:46.866Z,18.77
2017-06-19T13:10:12.177Z,19.72
2017-06-19T13:12:37.512Z,19.34
2017-06-19T13:15:02.891Z,20.12
2017-06-19T13:17:29.238Z,18.77
2017-06-19T13:19:54.529Z,19.27
2017-06-19T13:22:11.461Z,19.27
2017-06-19T13:24:36.868Z,19.46
2017-06-19T13:27:02.286Z,19.66
2017-06-19T13:29:19.102Z,19.66
2017-06-19T13:31:44.516Z,20.15
2017-06-19T13:34:09.922Z,20.53
2017-06-19T13:36:26.741Z,20.62
2017-06-19T13:38:52.152Z,20.43
2017-06-19T13:41:17.458Z,21.3
2017-06-19T13:43:28.300Z,21.77
2017-06-19T13:45:53.548Z,21.97
2017-06-19T13:48:18.841Z,21.2
2017-06-19T13:50:22.005Z,21.4
2017-06-19T13:52:47.352Z,20.45
2017-06-19T13:55:12.661Z,21.04
2017-06-19T13:57:37.875Z,21.12
2017-06-19T13:59:46.067Z,20.46
2017-06-19T14:02:11.385Z,20.17
2017-06-19T14:04:36.694Z,19.96
2017-06-19T14:07:02.012Z,20.57
2017-06-19T14:09:27.317Z,19.68
2017-06-19T14:11:44.091Z,20.17
2017-06-19T14:14:09.392Z,20.75
2017-06-19T14:16:11.094Z,21.14
2017-06-19T14:18:36.513Z,21.22
2017-06-19T14:21:01.920Z,21.04
2017-06-19T14:23:18.733Z,20.85
2017-06-19T14:25:44.050Z,20.46
2017-06-19T14:28:09.459Z,21.14
2017-06-19T14:30:34.798Z,21.34
2017-06-19T14:33:00.203Z,21.34
2017-06-19T14:35:25.507Z,21.14
2017-06-19T14:37:50.810Z,21.15
2017-06-19T14:40:07.615Z,21.36
2017-06-19T14:42:32.930Z,22.03
2017-06-19T14:44:58.238Z,22.13
2017-06-19T14:47:15.164Z,21.44
2017-06-19T14:49:41.500Z,21.44
2017-06-19T14:52:06.798Z,22.12
2017-06-19T14:54:24.639Z,22.12
2017-06-19T14:56:49.957Z,21.84
2017-06-19T14:59:15.374Z,21.64
2017-06-19T15:01:40.784Z,22.13
2017-06-19T15:03:58.230Z,22.22
2017-06-19T15:06:23.627Z,22.13
2017-06-19T15:08:49.030Z,21.94
2017-06-19T15:13:38.724Z,22.11
2017-06-19T15:16:06.084Z,22.5
2017-06-19T15:18:31.399Z,22.52
2017-06-19T15:20:56.710Z,23.29
2017-06-19T15:23:22.043Z,23.4
2017-06-19T15:25:47.449Z,23.4
2017-06-19T15:28:12.851Z,23.41
2017-06-19T15:30:38.145Z,24.27
2017-06-19T15:33:03.469Z,23.6
2017-06-19T15:35:20.172Z,23.57
2017-06-19T15:37:36.984Z,23.96
2017-06-19T15:40:02.299Z,23.49
2017-06-19T15:42:27.608Z,24.29
2017-06-19T15:44:53.065Z,23
2017-06-19T15:47:18.340Z,23.39
2017-06-19T15:49:43.649Z,23.09
2017-06-19T15:52:09.002Z,23.19
2017-06-19T15:54:35.282Z,24.16
2017-06-19T15:56:46.841Z,24.26
2017-06-19T15:59:12.193Z,23.75
2017-06-19T16:01:37.400Z,24.36
2017-06-19T16:04:03.643Z,23.95
2017-06-19T16:06:32.625Z,24.44
2017-06-19T16:08:57.840Z,24.25
2017-06-19T16:11:25.111Z,24.35
2017-06-19T16:13:50.401Z,23.36
2017-06-19T16:16:15.709Z,23.86
2017-06-19T16:18:41.025Z,23.58
2017-06-19T16:21:06.345Z,24.17
2017-06-19T16:23:31.538Z,23.97
2017-06-19T16:25:56.860Z,24.25
2017-06-19T16:28:22.169Z,23.78
2017-06-19T16:30:47.477Z,23.66
2017-06-19T16:33:12.787Z,23.86
2017-06-19T16:35:38.005Z,24.15
2017-06-19T16:38:03.300Z,24.16
2017-06-19T16:40:28.515Z,23.66
2017-06-19T16:42:53.826Z,23.46
2017-06-19T16:45:19.138Z,24.63
2017-06-19T16:47:35.940Z,25.33
2017-06-19T16:50:01.272Z,24.93
2017-06-19T16:52:26.576Z,24.06
2017-06-19T16:54:34.764Z,24.44
2017-06-19T16:56:59.976Z,24.44
2017-06-19T16:59:25.195Z,24.74
2017-06-19T17:01:50.581Z,25.04
2017-06-19T17:04:17.211Z,24.74
2017-06-19T17:06:42.459Z,24.15
2017-06-19T17:09:07.650Z,25.52
2017-06-19T17:11:32.879Z,25.12
2017-06-19T17:15:33.993Z,25.32
2017-06-19T17:17:59.317Z,25.92
2017-06-19T17:20:24.556Z,24.35
2017-06-19T17:22:49.762Z,24.52
2017-06-19T17:25:14.977Z,25.2
2017-06-19T17:27:40.290Z,25.22
2017-06-19T17:29:57.009Z,25.71
2017-06-19T17:32:22.196Z,25.61
2017-06-19T17:34:47.409Z,25.89
2017-06-19T17:38:52.058Z,25.49
2017-06-19T17:43:01.694Z,25.5
2017-06-19T17:45:03.868Z,25.39
2017-06-19T17:47:29.093Z,25.5
2017-06-19T17:49:54.285Z,26.78
2017-06-19T17:52:05.040Z,25.79
2017-06-19T17:54:36.828Z,25.68
2017-06-19T17:57:01.919Z,25.98
2017-06-19T17:59:27.180Z,25.98
2017-06-19T18:01:52.371Z,25.68
2017-06-19T18:04:19.599Z,26.34
2017-06-19T18:06:44.826Z,25.96
2017-06-19T18:08:54.045Z,25.88
2017-06-19T18:11:19.152Z,26.35
2017-06-19T18:13:35.761Z,25.87
2017-06-19T18:15:52.370Z,25.78
2017-06-19T18:18:17.577Z,26.27
2017-06-19T18:20:44.730Z,26.55
2017-06-19T18:23:09.835Z,27.04
2017-06-19T18:25:34.930Z,27.12
2017-06-19T18:28:00.068Z,27.83
2017-06-19T18:30:25.168Z,27.72
2017-06-19T18:32:50.221Z,27.62
2017-06-19T18:35:06.862Z,26.73
2017-06-19T18:37:32.073Z,28.3
2017-06-19T18:41:30.023Z,27.8
2017-06-19T18:43:55.167Z,27.42
2017-06-19T18:46:20.264Z,27.9
2017-06-19T18:48:45.371Z,28.19
2017-06-19T18:51:10.474Z,28.58
2017-06-19T18:53:27.079Z,28.39
2017-06-19T18:55:43.597Z,28.67
2017-06-19T18:58:08.716Z,29.74
2017-06-19T19:00:16.824Z,29.45
2017-06-19T19:02:41.914Z,29.44
2017-06-19T19:04:43.529Z,30.22
2017-06-19T19:07:08.681Z,30.41
2017-06-19T19:09:19.330Z,30.12
2017-06-19T19:11:21.495Z,30.71
2017-06-19T19:13:46.520Z,30.41
2017-06-19T19:16:11.518Z,30.71
2017-06-19T19:18:36.508Z,31.08
